sensor_id;sensor_type;location;lat;lon;timestamp;P1;durP1;ratioP1;P2;durP2;ratioP2
21771;SDS011;11047;47.904;8.110;2023-04-02T00:00:04;1.48;;;0.50;;
21771;SDS011;11047;47.904;8.110;2023-04-02T00:02:46;1.70;;;0.50;;
21771;SDS011;11047;47.904;8.110;2023-04-02T00:05:24;0.43;;;0.43;;
21771;SDS011;11047;47.904;8.110;2023-04-02T00:07:58;2.33;;;0.50;;
21771;SDS011;11047;47.904;8.110;2023-04-02T00:10:32;0.93;;;0.40;;
21771;SDS011;11047;47.904;8.110;2023-04-02T00:13:06;1.40;;;0.52;;
21771;SDS011;11047;47.904;8.110;2023-04-02T00:15:49;0.77;;;0.30;;
21771;SDS011;11047;47.904;8.110;2023-04-02T00:18:22;3.60;;;0.63;;
21771;SDS011;11047;47.904;8.110;2023-04-02T00:20:53;0.63;;;0.60;;
21771;SDS011;11047;47.904;8.110;2023-04-02T00:23:38;1.13;;;0.47;;
21771;SDS011;11047;47.904;8.110;2023-04-02T00:29:01;5.35;;;0.77;;
21771;SDS011;11047;47.904;8.110;2023-04-02T00:31:32;2.90;;;0.70;;
21771;SDS011;11047;47.904;8.110;2023-04-02T00:34:05;1.17;;;0.45;;
21771;SDS011;11047;47.904;8.110;2023-04-02T00:36:36;6.90;;;0.52;;
21771;SDS011;11047;47.904;8.110;2023-04-02T00:39:06;2.42;;;0.60;;
21771;SDS011;11047;47.904;8.110;2023-04-02T00:41:44;0.90;;;0.38;;
21771;SDS011;11047;47.904;8.110;2023-04-02T00:44:18;4.07;;;0.95;;
21771;SDS011;11047;47.904;8.110;2023-04-02T00:46:54;1.70;;;0.50;;
21771;SDS011;11047;47.904;8.110;2023-04-02T00:49:26;4.22;;;0.63;;
21771;SDS011;11047;47.904;8.110;2023-04-02T00:52:04;0.75;;;0.40;;
21771;SDS011;11047;47.904;8.110;2023-04-02T00:54:42;2.85;;;0.57;;
21771;SDS011;11047;47.904;8.110;2023-04-02T00:57:16;2.25;;;0.50;;
21771;SDS011;11047;47.904;8.110;2023-04-02T00:59:53;1.25;;;0.47;;
21771;SDS011;11047;47.904;8.110;2023-04-02T01:02:30;2.95;;;0.55;;
21771;SDS011;11047;47.904;8.110;2023-04-02T01:05:03;1.73;;;0.57;;
21771;SDS011;11047;47.904;8.110;2023-04-02T01:07:59;1.77;;;0.70;;
21771;SDS011;11047;47.904;8.110;2023-04-02T01:10:39;1.05;;;0.50;;
21771;SDS011;11047;47.904;8.110;2023-04-02T01:13:22;2.58;;;0.52;;
21771;SDS011;11047;47.904;8.110;2023-04-02T01:15:58;2.38;;;0.50;;
21771;SDS011;11047;47.904;8.110;2023-04-02T01:18:32;1.20;;;0.70;;
21771;SDS011;11047;47.904;8.110;2023-04-02T01:24:01;1.05;;;0.40;;
21771;SDS011;11047;47.904;8.110;2023-04-02T01:26:36;2.30;;;0.50;;
21771;SDS011;11047;47.904;8.110;2023-04-02T01:29:16;1.60;;;0.50;;
21771;SDS011;11047;47.904;8.110;2023-04-02T01:31:48;2.80;;;0.57;;
21771;SDS011;11047;47.904;8.110;2023-04-02T01:34:20;1.00;;;0.50;;
21771;SDS011;11047;47.904;8.110;2023-04-02T01:36:53;1.00;;;0.40;;
21771;SDS011;11047;47.904;8.110;2023-04-02T01:39:36;1.27;;;0.52;;
21771;SDS011;11047;47.904;8.110;2023-04-02T01:42:12;1.25;;;0.40;;
21771;SDS011;11047;47.904;8.110;2023-04-02T01:44:49;1.75;;;0.50;;
21771;SDS011;11047;47.904;8.110;2023-04-02T01:47:26;1.40;;;0.35;;
21771;SDS011;11047;47.904;8.110;2023-04-02T01:50:00;4.07;;;0.50;;
21771;SDS011;11047;47.904;8.110;2023-04-02T01:52:34;3.70;;;0.57;;
21771;SDS011;11047;47.904;8.110;2023-04-02T01:55:05;1.80;;;0.52;;
21771;SDS011;11047;47.904;8.110;2023-04-02T01:57:43;2.25;;;0.82;;
21771;SDS011;11047;47.904;8.110;2023-04-02T02:00:18;1.00;;;0.67;;
21771;SDS011;11047;47.904;8.110;2023-04-02T02:02:48;1.15;;;0.43;;
21771;SDS011;11047;47.904;8.110;2023-04-02T02:05:21;1.83;;;0.70;;
21771;SDS011;11047;47.904;8.110;2023-04-02T02:07:49;1.15;;;0.65;;
21771;SDS011;11047;47.904;8.110;2023-04-02T02:10:24;1.58;;;0.40;;
21771;SDS011;11047;47.904;8.110;2023-04-02T02:12:56;2.75;;;0.52;;
21771;SDS011;11047;47.904;8.110;2023-04-02T02:15:26;0.65;;;0.50;;
21771;SDS011;11047;47.904;8.110;2023-04-02T02:17:58;0.40;;;0.28;;
21771;SDS011;11047;47.904;8.110;2023-04-02T02:20:31;0.73;;;0.22;;
21771;SDS011;11047;47.904;8.110;2023-04-02T02:23:01;0.52;;;0.30;;
21771;SDS011;11047;47.904;8.110;2023-04-02T02:25:30;0.45;;;0.40;;
21771;SDS011;11047;47.904;8.110;2023-04-02T02:28:12;0.68;;;0.60;;
21771;SDS011;11047;47.904;8.110;2023-04-02T02:30:48;1.05;;;0.40;;
21771;SDS011;11047;47.904;8.110;2023-04-02T02:33:22;2.22;;;0.80;;
21771;SDS011;11047;47.904;8.110;2023-04-02T02:35:52;2.08;;;0.57;;
21771;SDS011;11047;47.904;8.110;2023-04-02T02:38:30;0.88;;;0.60;;
21771;SDS011;11047;47.904;8.110;2023-04-02T02:41:15;0.40;;;0.40;;
21771;SDS011;11047;47.904;8.110;2023-04-02T02:43:56;0.40;;;0.40;;
21771;SDS011;11047;47.904;8.110;2023-04-02T02:46:31;1.52;;;0.43;;
21771;SDS011;11047;47.904;8.110;2023-04-02T02:49:06;0.35;;;0.35;;
21771;SDS011;11047;47.904;8.110;2023-04-02T02:51:45;1.05;;;0.43;;
21771;SDS011;11047;47.904;8.110;2023-04-02T02:54:25;1.45;;;0.43;;
21771;SDS011;11047;47.904;8.110;2023-04-02T02:56:56;1.45;;;0.40;;
21771;SDS011;11047;47.904;8.110;2023-04-02T02:59:34;0.88;;;0.38;;
21771;SDS011;11047;47.904;8.110;2023-04-02T03:02:04;3.33;;;0.30;;
21771;SDS011;11047;47.904;8.110;2023-04-02T03:04:33;0.93;;;0.50;;
21771;SDS011;11047;47.904;8.110;2023-04-02T03:07:03;0.73;;;0.45;;
21771;SDS011;11047;47.904;8.110;2023-04-02T03:09:35;0.40;;;0.40;;
21771;SDS011;11047;47.904;8.110;2023-04-02T03:12:15;1.58;;;0.30;;
21771;SDS011;11047;47.904;8.110;2023-04-02T03:15:01;0.45;;;0.40;;
21771;SDS011;11047;47.904;8.110;2023-04-02T03:17:35;0.90;;;0.40;;
21771;SDS011;11047;47.904;8.110;2023-04-02T03:22:40;1.38;;;0.50;;
21771;SDS011;11047;47.904;8.110;2023-04-02T03:25:18;1.05;;;0.60;;
21771;SDS011;11047;47.904;8.110;2023-04-02T03:27:50;0.40;;;0.30;;
21771;SDS011;11047;47.904;8.110;2023-04-02T03:30:26;0.45;;;0.32;;
21771;SDS011;11047;47.904;8.110;2023-04-02T03:32:59;0.68;;;0.40;;
21771;SDS011;11047;47.904;8.110;2023-04-02T03:35:32;0.35;;;0.35;;
21771;SDS011;11047;47.904;8.110;2023-04-02T03:38:06;0.63;;;0.40;;
21771;SDS011;11047;47.904;8.110;2023-04-02T03:40:43;0.45;;;0.32;;
21771;SDS011;11047;47.904;8.110;2023-04-02T03:43:21;1.60;;;0.50;;
21771;SDS011;11047;47.904;8.110;2023-04-02T03:45:54;0.28;;;0.28;;
21771;SDS011;11047;47.904;8.110;2023-04-02T03:48:28;0.70;;;0.35;;
21771;SDS011;11047;47.904;8.110;2023-04-02T03:51:02;1.52;;;0.57;;
21771;SDS011;11047;47.904;8.110;2023-04-02T03:53:44;0.47;;;0.38;;
21771;SDS011;11047;47.904;8.110;2023-04-02T03:56:19;0.80;;;0.20;;
21771;SDS011;11047;47.904;8.110;2023-04-02T03:58:54;0.70;;;0.30;;
21771;SDS011;11047;47.904;8.110;2023-04-02T04:01:34;0.30;;;0.30;;
21771;SDS011;11047;47.904;8.110;2023-04-02T04:04:12;0.50;;;0.30;;
21771;SDS011;11047;47.904;8.110;2023-04-02T04:06:42;0.55;;;0.30;;
21771;SDS011;11047;47.904;8.110;2023-04-02T04:09:15;1.75;;;0.30;;
21771;SDS011;11047;47.904;8.110;2023-04-02T04:11:50;0.45;;;0.30;;
21771;SDS011;11047;47.904;8.110;2023-04-02T04:14:25;1.30;;;0.40;;
21771;SDS011;11047;47.904;8.110;2023-04-02T04:16:56;0.30;;;0.30;;
21771;SDS011;11047;47.904;8.110;2023-04-02T04:19:37;1.45;;;0.30;;
21771;SDS011;11047;47.904;8.110;2023-04-02T04:22:13;0.50;;;0.30;;
21771;SDS011;11047;47.904;8.110;2023-04-02T04:24:54;1.55;;;0.30;;
21771;SDS011;11047;47.904;8.110;2023-04-02T04:27:30;0.40;;;0.40;;
21771;SDS011;11047;47.904;8.110;2023-04-02T04:30:13;1.65;;;0.30;;
21771;SDS011;11047;47.904;8.110;2023-04-02T04:32:49;1.55;;;0.30;;
21771;SDS011;11047;47.904;8.110;2023-04-02T04:35:24;2.67;;;0.38;;
21771;SDS011;11047;47.904;8.110;2023-04-02T04:38:00;0.45;;;0.45;;
21771;SDS011;11047;47.904;8.110;2023-04-02T04:40:34;4.13;;;0.30;;
21771;SDS011;11047;47.904;8.110;2023-04-02T04:43:18;1.52;;;0.25;;
21771;SDS011;11047;47.904;8.110;2023-04-02T04:46:02;0.30;;;0.30;;
21771;SDS011;11047;47.904;8.110;2023-04-02T04:48:38;1.70;;;0.43;;
21771;SDS011;11047;47.904;8.110;2023-04-02T04:51:19;1.20;;;0.40;;
21771;SDS011;11047;47.904;8.110;2023-04-02T04:53:52;0.38;;;0.32;;
21771;SDS011;11047;47.904;8.110;2023-04-02T04:56:23;0.82;;;0.30;;
21771;SDS011;11047;47.904;8.110;2023-04-02T04:59:03;0.20;;;0.20;;
21771;SDS011;11047;47.904;8.110;2023-04-02T05:01:44;2.05;;;0.30;;
21771;SDS011;11047;47.904;8.110;2023-04-02T05:04:18;0.20;;;0.20;;
21771;SDS011;11047;47.904;8.110;2023-04-02T05:06:54;0.30;;;0.20;;
21771;SDS011;11047;47.904;8.110;2023-04-02T05:09:35;0.55;;;0.25;;
21771;SDS011;11047;47.904;8.110;2023-04-02T05:12:11;0.25;;;0.20;;
21771;SDS011;11047;47.904;8.110;2023-04-02T05:14:55;0.20;;;0.20;;
21771;SDS011;11047;47.904;8.110;2023-04-02T05:17:29;0.10;;;0.10;;
21771;SDS011;11047;47.904;8.110;2023-04-02T05:20:03;0.20;;;0.20;;
21771;SDS011;11047;47.904;8.110;2023-04-02T05:22:46;0.50;;;0.30;;
21771;SDS011;11047;47.904;8.110;2023-04-02T05:25:19;0.20;;;0.20;;
21771;SDS011;11047;47.904;8.110;2023-04-02T05:27:51;0.30;;;0.30;;
21771;SDS011;11047;47.904;8.110;2023-04-02T05:30:43;1.38;;;0.80;;
21771;SDS011;11047;47.904;8.110;2023-04-02T05:33:26;2.47;;;0.47;;
21771;SDS011;11047;47.904;8.110;2023-04-02T05:36:00;0.20;;;0.20;;
21771;SDS011;11047;47.904;8.110;2023-04-02T05:38:35;3.83;;;0.30;;
21771;SDS011;11047;47.904;8.110;2023-04-02T05:41:13;0.30;;;0.20;;
21771;SDS011;11047;47.904;8.110;2023-04-02T05:43:53;0.10;;;0.10;;
21771;SDS011;11047;47.904;8.110;2023-04-02T05:46:29;0.20;;;0.20;;
21771;SDS011;11047;47.904;8.110;2023-04-02T05:48:59;0.75;;;0.20;;
21771;SDS011;11047;47.904;8.110;2023-04-02T05:51:34;0.10;;;0.10;;
21771;SDS011;11047;47.904;8.110;2023-04-02T05:54:14;0.20;;;0.20;;
21771;SDS011;11047;47.904;8.110;2023-04-02T05:56:47;0.10;;;0.10;;
21771;SDS011;11047;47.904;8.110;2023-04-02T05:59:20;0.47;;;0.35;;
21771;SDS011;11047;47.904;8.110;2023-04-02T06:01:54;0.65;;;0.20;;
21771;SDS011;11047;47.904;8.110;2023-04-02T06:04:28;0.20;;;0.20;;
21771;SDS011;11047;47.904;8.110;2023-04-02T06:07:12;0.13;;;0.10;;
21771;SDS011;11047;47.904;8.110;2023-04-02T06:09:45;0.75;;;0.20;;
21771;SDS011;11047;47.904;8.110;2023-04-02T06:12:23;1.60;;;0.13;;
21771;SDS011;11047;47.904;8.110;2023-04-02T06:14:54;0.25;;;0.25;;
21771;SDS011;11047;47.904;8.110;2023-04-02T06:17:24;0.10;;;0.10;;
21771;SDS011;11047;47.904;8.110;2023-04-02T06:19:51;0.10;;;0.10;;
21771;SDS011;11047;47.904;8.110;2023-04-02T06:22:22;0.20;;;0.20;;
21771;SDS011;11047;47.904;8.110;2023-04-02T06:24:57;0.10;;;0.10;;
21771;SDS011;11047;47.904;8.110;2023-04-02T06:27:27;0.10;;;0.10;;
21771;SDS011;11047;47.904;8.110;2023-04-02T06:29:58;0.10;;;0.10;;
21771;SDS011;11047;47.904;8.110;2023-04-02T06:32:35;0.20;;;0.20;;
21771;SDS011;11047;47.904;8.110;2023-04-02T06:35:02;0.10;;;0.10;;
21771;SDS011;11047;47.904;8.110;2023-04-02T06:37:36;0.20;;;0.20;;
21771;SDS011;11047;47.904;8.110;2023-04-02T06:40:17;0.13;;;0.13;;
21771;SDS011;11047;47.904;8.110;2023-04-02T06:43:03;0.10;;;0.10;;
21771;SDS011;11047;47.904;8.110;2023-04-02T06:45:35;0.47;;;0.10;;
21771;SDS011;11047;47.904;8.110;2023-04-02T06:48:15;0.10;;;0.10;;
21771;SDS011;11047;47.904;8.110;2023-04-02T06:50:46;0.28;;;0.15;;
21771;SDS011;11047;47.904;8.110;2023-04-02T06:53:17;0.10;;;0.10;;
21771;SDS011;11047;47.904;8.110;2023-04-02T06:55:49;0.10;;;0.10;;
21771;SDS011;11047;47.904;8.110;2023-04-02T06:58:32;0.20;;;0.20;;
21771;SDS011;11047;47.904;8.110;2023-04-02T07:00:59;0.20;;;0.20;;
21771;SDS011;11047;47.904;8.110;2023-04-02T07:03:29;0.13;;;0.13;;
21771;SDS011;11047;47.904;8.110;2023-04-02T07:05:58;0.10;;;0.10;;
21771;SDS011;11047;47.904;8.110;2023-04-02T07:08:31;0.10;;;0.10;;
21771;SDS011;11047;47.904;8.110;2023-04-02T07:11:01;0.20;;;0.20;;
21771;SDS011;11047;47.904;8.110;2023-04-02T07:13:29;0.35;;;0.20;;
21771;SDS011;11047;47.904;8.110;2023-04-02T07:15:59;0.25;;;0.25;;
21771;SDS011;11047;47.904;8.110;2023-04-02T07:18:30;0.20;;;0.20;;
21771;SDS011;11047;47.904;8.110;2023-04-02T07:21:02;0.10;;;0.10;;
21771;SDS011;11047;47.904;8.110;2023-04-02T07:23:31;1.35;;;0.10;;
21771;SDS011;11047;47.904;8.110;2023-04-02T07:26:12;0.10;;;0.10;;
21771;SDS011;11047;47.904;8.110;2023-04-02T07:28:46;0.10;;;0.10;;
21771;SDS011;11047;47.904;8.110;2023-04-02T07:31:23;0.10;;;0.10;;
21771;SDS011;11047;47.904;8.110;2023-04-02T07:34:04;0.30;;;0.30;;
21771;SDS011;11047;47.904;8.110;2023-04-02T07:36:40;0.20;;;0.20;;
21771;SDS011;11047;47.904;8.110;2023-04-02T07:39:09;0.65;;;0.60;;
21771;SDS011;11047;47.904;8.110;2023-04-02T07:41:54;0.63;;;0.32;;
21771;SDS011;11047;47.904;8.110;2023-04-02T07:44:26;0.73;;;0.40;;
21771;SDS011;11047;47.904;8.110;2023-04-02T07:46:56;0.10;;;0.10;;
21771;SDS011;11047;47.904;8.110;2023-04-02T07:49:26;0.10;;;0.10;;
21771;SDS011;11047;47.904;8.110;2023-04-02T07:51:53;0.77;;;0.20;;
21771;SDS011;11047;47.904;8.110;2023-04-02T07:54:24;0.10;;;0.10;;
21771;SDS011;11047;47.904;8.110;2023-04-02T07:56:55;0.10;;;0.10;;
21771;SDS011;11047;47.904;8.110;2023-04-02T07:59:24;0.10;;;0.10;;
21771;SDS011;11047;47.904;8.110;2023-04-02T08:01:51;0.30;;;0.30;;
21771;SDS011;11047;47.904;8.110;2023-04-02T08:04:26;0.50;;;0.50;;
21771;SDS011;11047;47.904;8.110;2023-04-02T08:07:01;0.20;;;0.20;;
21771;SDS011;11047;47.904;8.110;2023-04-02T08:09:28;0.22;;;0.15;;
21771;SDS011;11047;47.904;8.110;2023-04-02T08:12:06;0.10;;;0.10;;
21771;SDS011;11047;47.904;8.110;2023-04-02T08:14:43;0.10;;;0.10;;
21771;SDS011;11047;47.904;8.110;2023-04-02T08:17:14;0.40;;;0.15;;
21771;SDS011;11047;47.904;8.110;2023-04-02T08:19:45;0.10;;;0.10;;
21771;SDS011;11047;47.904;8.110;2023-04-02T08:22:25;0.20;;;0.20;;
21771;SDS011;11047;47.904;8.110;2023-04-02T08:24:53;0.10;;;0.10;;
21771;SDS011;11047;47.904;8.110;2023-04-02T08:27:32;0.22;;;0.10;;
21771;SDS011;11047;47.904;8.110;2023-04-02T08:29:59;0.10;;;0.10;;
21771;SDS011;11047;47.904;8.110;2023-04-02T08:32:31;0.10;;;0.10;;
21771;SDS011;11047;47.904;8.110;2023-04-02T08:35:01;0.20;;;0.20;;
21771;SDS011;11047;47.904;8.110;2023-04-02T08:37:37;0.43;;;0.35;;
21771;SDS011;11047;47.904;8.110;2023-04-02T08:40:12;0.43;;;0.10;;
21771;SDS011;11047;47.904;8.110;2023-04-02T08:42:49;0.10;;;0.10;;
21771;SDS011;11047;47.904;8.110;2023-04-02T08:45:37;0.10;;;0.10;;
21771;SDS011;11047;47.904;8.110;2023-04-02T08:48:17;0.10;;;0.10;;
21771;SDS011;11047;47.904;8.110;2023-04-02T08:50:44;0.10;;;0.10;;
21771;SDS011;11047;47.904;8.110;2023-04-02T08:53:17;0.10;;;0.10;;
21771;SDS011;11047;47.904;8.110;2023-04-02T08:55:48;0.10;;;0.10;;
21771;SDS011;11047;47.904;8.110;2023-04-02T08:58:31;0.10;;;0.10;;
21771;SDS011;11047;47.904;8.110;2023-04-02T09:01:31;0.10;;;0.10;;
21771;SDS011;11047;47.904;8.110;2023-04-02T09:04:03;0.00;;;0.00;;
21771;SDS011;11047;47.904;8.110;2023-04-02T09:06:42;0.05;;;0.05;;
21771;SDS011;11047;47.904;8.110;2023-04-02T09:09:18;0.10;;;0.10;;
21771;SDS011;11047;47.904;8.110;2023-04-02T09:11:49;0.10;;;0.10;;
21771;SDS011;11047;47.904;8.110;2023-04-02T09:14:23;0.10;;;0.10;;
21771;SDS011;11047;47.904;8.110;2023-04-02T09:17:01;0.20;;;0.10;;
21771;SDS011;11047;47.904;8.110;2023-04-02T09:19:32;0.03;;;0.03;;
21771;SDS011;11047;47.904;8.110;2023-04-02T09:22:05;0.10;;;0.10;;
21771;SDS011;11047;47.904;8.110;2023-04-02T09:24:34;0.10;;;0.10;;
21771;SDS011;11047;47.904;8.110;2023-04-02T09:27:02;0.10;;;0.10;;
21771;SDS011;11047;47.904;8.110;2023-04-02T09:29:42;0.00;;;0.00;;
21771;SDS011;11047;47.904;8.110;2023-04-02T09:32:16;0.28;;;0.10;;
21771;SDS011;11047;47.904;8.110;2023-04-02T09:35:03;0.00;;;0.00;;
21771;SDS011;11047;47.904;8.110;2023-04-02T09:37:36;0.13;;;0.10;;
21771;SDS011;11047;47.904;8.110;2023-04-02T09:43:24;0.22;;;0.20;;
21771;SDS011;11047;47.904;8.110;2023-04-02T12:13:52;0.80;;;0.17;;
21771;SDS011;11047;47.904;8.110;2023-04-02T12:23:48;0.57;;;0.47;;
21771;SDS011;11047;47.904;8.110;2023-04-02T12:43:54;0.80;;;0.40;;
21771;SDS011;11047;47.904;8.110;2023-04-02T12:46:45;1.55;;;0.40;;
21771;SDS011;11047;47.904;8.110;2023-04-02T12:49:35;0.30;;;0.30;;
21771;SDS011;11047;47.904;8.110;2023-04-02T12:53:22;0.40;;;0.40;;
21771;SDS011;11047;47.904;8.110;2023-04-02T12:56:36;1.83;;;1.17;;
21771;SDS011;11047;47.904;8.110;2023-04-02T13:06:15;1.15;;;0.85;;
21771;SDS011;11047;47.904;8.110;2023-04-02T13:16:06;1.55;;;1.10;;
21771;SDS011;11047;47.904;8.110;2023-04-02T13:42:57;0.85;;;0.50;;
21771;SDS011;11047;47.904;8.110;2023-04-02T13:46:31;0.63;;;0.47;;
21771;SDS011;11047;47.904;8.110;2023-04-02T13:49:34;0.40;;;0.40;;
21771;SDS011;11047;47.904;8.110;2023-04-02T13:52:30;0.50;;;0.50;;
21771;SDS011;11047;47.904;8.110;2023-04-02T13:55:25;1.75;;;0.52;;
21771;SDS011;11047;47.904;8.110;2023-04-02T14:15:40;0.20;;;0.20;;
21771;SDS011;11047;47.904;8.110;2023-04-02T14:18:51;0.20;;;0.20;;
21771;SDS011;11047;47.904;8.110;2023-04-02T14:21:55;0.10;;;0.10;;
21771;SDS011;11047;47.904;8.110;2023-04-02T14:42:04;0.13;;;0.13;;
21771;SDS011;11047;47.904;8.110;2023-04-02T14:52:46;0.17;;;0.17;;
21771;SDS011;11047;47.904;8.110;2023-04-02T14:59:33;1.13;;;0.13;;
21771;SDS011;11047;47.904;8.110;2023-04-02T15:08:29;1.02;;;0.20;;
21771;SDS011;11047;47.904;8.110;2023-04-02T15:12:02;0.00;;;0.00;;
21771;SDS011;11047;47.904;8.110;2023-04-02T15:15:19;0.10;;;0.10;;
21771;SDS011;11047;47.904;8.110;2023-04-02T15:18:29;0.10;;;0.10;;
21771;SDS011;11047;47.904;8.110;2023-04-02T15:28:25;0.30;;;0.10;;
21771;SDS011;11047;47.904;8.110;2023-04-02T17:03:19;0.30;;;0.30;;
21771;SDS011;11047;47.904;8.110;2023-04-02T17:06:07;0.55;;;0.45;;
21771;SDS011;11047;47.904;8.110;2023-04-02T17:08:41;1.60;;;0.85;;
21771;SDS011;11047;47.904;8.110;2023-04-02T17:11:11;7.85;;;1.52;;
21771;SDS011;11047;47.904;8.110;2023-04-02T17:13:41;0.85;;;0.77;;
21771;SDS011;11047;47.904;8.110;2023-04-02T17:16:12;0.80;;;0.65;;
21771;SDS011;11047;47.904;8.110;2023-04-02T17:18:47;0.82;;;0.82;;
21771;SDS011;11047;47.904;8.110;2023-04-02T17:21:16;0.73;;;0.73;;
21771;SDS011;11047;47.904;8.110;2023-04-02T17:23:47;0.95;;;0.60;;
21771;SDS011;11047;47.904;8.110;2023-04-02T17:26:17;2.13;;;1.50;;
21771;SDS011;11047;47.904;8.110;2023-04-02T17:28:46;0.98;;;0.98;;
21771;SDS011;11047;47.904;8.110;2023-04-02T17:31:15;1.42;;;1.15;;
21771;SDS011;11047;47.904;8.110;2023-04-02T17:33:44;1.58;;;0.93;;
21771;SDS011;11047;47.904;8.110;2023-04-02T17:36:32;2.00;;;1.60;;
21771;SDS011;11047;47.904;8.110;2023-04-02T17:39:08;1.23;;;0.93;;
21771;SDS011;11047;47.904;8.110;2023-04-02T17:41:43;1.10;;;1.00;;
21771;SDS011;11047;47.904;8.110;2023-04-02T17:44:25;0.40;;;0.40;;
21771;SDS011;11047;47.904;8.110;2023-04-02T17:47:00;1.75;;;0.45;;
21771;SDS011;11047;47.904;8.110;2023-04-02T17:49:38;0.77;;;0.60;;
21771;SDS011;11047;47.904;8.110;2023-04-02T17:52:13;1.70;;;1.60;;
21771;SDS011;11047;47.904;8.110;2023-04-02T17:54:46;0.93;;;0.85;;
21771;SDS011;11047;47.904;8.110;2023-04-02T17:57:26;1.50;;;1.27;;
21771;SDS011;11047;47.904;8.110;2023-04-02T18:00:10;0.93;;;0.90;;
21771;SDS011;11047;47.904;8.110;2023-04-02T18:02:50;0.80;;;0.77;;
21771;SDS011;11047;47.904;8.110;2023-04-02T18:05:37;1.45;;;0.95;;
21771;SDS011;11047;47.904;8.110;2023-04-02T18:08:11;0.90;;;0.90;;
21771;SDS011;11047;47.904;8.110;2023-04-02T18:14:13;1.58;;;0.90;;
21771;SDS011;11047;47.904;8.110;2023-04-02T18:19:24;1.15;;;0.80;;
21771;SDS011;11047;47.904;8.110;2023-04-02T18:21:59;0.75;;;0.75;;
21771;SDS011;11047;47.904;8.110;2023-04-02T18:24:36;2.42;;;0.70;;
21771;SDS011;11047;47.904;8.110;2023-04-02T18:27:20;0.80;;;0.80;;
21771;SDS011;11047;47.904;8.110;2023-04-02T18:29:56;0.80;;;0.80;;
21771;SDS011;11047;47.904;8.110;2023-04-02T18:32:34;1.48;;;0.90;;
21771;SDS011;11047;47.904;8.110;2023-04-02T18:37:48;0.85;;;0.80;;
21771;SDS011;11047;47.904;8.110;2023-04-02T18:40:29;1.02;;;0.90;;
21771;SDS011;11047;47.904;8.110;2023-04-02T18:43:08;1.08;;;1.00;;
21771;SDS011;11047;47.904;8.110;2023-04-02T18:45:48;3.03;;;2.10;;
21771;SDS011;11047;47.904;8.110;2023-04-02T18:48:26;1.73;;;1.63;;
21771;SDS011;11047;47.904;8.110;2023-04-02T18:51:01;2.28;;;1.88;;
21771;SDS011;11047;47.904;8.110;2023-04-02T18:53:30;2.20;;;2.00;;
21771;SDS011;11047;47.904;8.110;2023-04-02T18:56:00;3.08;;;2.55;;
21771;SDS011;11047;47.904;8.110;2023-04-02T18:58:32;2.05;;;1.83;;
21771;SDS011;11047;47.904;8.110;2023-04-02T19:01:03;1.67;;;1.45;;
21771;SDS011;11047;47.904;8.110;2023-04-02T19:03:35;1.90;;;1.80;;
21771;SDS011;11047;47.904;8.110;2023-04-02T19:06:07;1.33;;;0.77;;
21771;SDS011;11047;47.904;8.110;2023-04-02T19:08:40;1.52;;;1.10;;
21771;SDS011;11047;47.904;8.110;2023-04-02T19:11:12;1.30;;;1.20;;
21771;SDS011;11047;47.904;8.110;2023-04-02T19:13:42;1.25;;;0.77;;
21771;SDS011;11047;47.904;8.110;2023-04-02T19:16:15;1.13;;;1.00;;
21771;SDS011;11047;47.904;8.110;2023-04-02T19:18:54;1.45;;;1.00;;
21771;SDS011;11047;47.904;8.110;2023-04-02T19:21:32;0.45;;;0.45;;
21771;SDS011;11047;47.904;8.110;2023-04-02T19:24:12;1.15;;;0.50;;
21771;SDS011;11047;47.904;8.110;2023-04-02T19:26:52;0.80;;;0.65;;
21771;SDS011;11047;47.904;8.110;2023-04-02T19:29:24;0.80;;;0.63;;
21771;SDS011;11047;47.904;8.110;2023-04-02T19:31:58;1.27;;;0.80;;
21771;SDS011;11047;47.904;8.110;2023-04-02T19:34:34;3.58;;;2.72;;
21771;SDS011;11047;47.904;8.110;2023-04-02T19:37:08;3.40;;;2.47;;
21771;SDS011;11047;47.904;8.110;2023-04-02T19:39:45;2.28;;;1.80;;
21771;SDS011;11047;47.904;8.110;2023-04-02T19:42:37;2.78;;;2.10;;
21771;SDS011;11047;47.904;8.110;2023-04-02T19:47:54;0.30;;;0.30;;
21771;SDS011;11047;47.904;8.110;2023-04-02T19:50:23;0.45;;;0.30;;
21771;SDS011;11047;47.904;8.110;2023-04-02T19:52:50;2.17;;;0.35;;
21771;SDS011;11047;47.904;8.110;2023-04-02T19:55:18;0.32;;;0.30;;
21771;SDS011;11047;47.904;8.110;2023-04-02T19:57:45;0.35;;;0.17;;
21771;SDS011;11047;47.904;8.110;2023-04-02T20:00:12;0.30;;;0.20;;
21771;SDS011;11047;47.904;8.110;2023-04-02T20:02:40;0.20;;;0.20;;
21771;SDS011;11047;47.904;8.110;2023-04-02T20:05:07;1.30;;;0.63;;
21771;SDS011;11047;47.904;8.110;2023-04-02T20:07:34;0.20;;;0.20;;
21771;SDS011;11047;47.904;8.110;2023-04-02T20:10:01;0.47;;;0.30;;
21771;SDS011;11047;47.904;8.110;2023-04-02T20:12:30;0.63;;;0.60;;
21771;SDS011;11047;47.904;8.110;2023-04-02T20:14:56;0.32;;;0.32;;
21771;SDS011;11047;47.904;8.110;2023-04-02T20:17:23;0.88;;;0.60;;
21771;SDS011;11047;47.904;8.110;2023-04-02T20:19:50;0.63;;;0.50;;
21771;SDS011;11047;47.904;8.110;2023-04-02T20:22:17;0.80;;;0.80;;
21771;SDS011;11047;47.904;8.110;2023-04-02T20:24:44;1.10;;;0.70;;
21771;SDS011;11047;47.904;8.110;2023-04-02T20:27:11;1.60;;;0.90;;
21771;SDS011;11047;47.904;8.110;2023-04-02T20:29:39;0.60;;;0.60;;
21771;SDS011;11047;47.904;8.110;2023-04-02T20:32:06;0.93;;;0.90;;
21771;SDS011;11047;47.904;8.110;2023-04-02T20:34:33;1.50;;;1.00;;
21771;SDS011;11047;47.904;8.110;2023-04-02T20:37:00;1.10;;;1.00;;
21771;SDS011;11047;47.904;8.110;2023-04-02T20:39:27;0.85;;;0.85;;
21771;SDS011;11047;47.904;8.110;2023-04-02T20:41:54;0.80;;;0.80;;
21771;SDS011;11047;47.904;8.110;2023-04-02T20:44:25;0.82;;;0.82;;
21771;SDS011;11047;47.904;8.110;2023-04-02T20:46:53;0.93;;;0.80;;
21771;SDS011;11047;47.904;8.110;2023-04-02T20:49:20;1.88;;;0.80;;
21771;SDS011;11047;47.904;8.110;2023-04-02T20:51:47;0.68;;;0.60;;
21771;SDS011;11047;47.904;8.110;2023-04-02T20:54:14;0.80;;;0.70;;
21771;SDS011;11047;47.904;8.110;2023-04-02T20:56:41;0.98;;;0.98;;
21771;SDS011;11047;47.904;8.110;2023-04-02T20:59:08;1.45;;;1.35;;
21771;SDS011;11047;47.904;8.110;2023-04-02T21:01:36;1.60;;;0.95;;
21771;SDS011;11047;47.904;8.110;2023-04-02T21:04:04;1.38;;;1.27;;
21771;SDS011;11047;47.904;8.110;2023-04-02T21:06:32;1.30;;;1.20;;
21771;SDS011;11047;47.904;8.110;2023-04-02T21:09:01;1.40;;;1.30;;
21771;SDS011;11047;47.904;8.110;2023-04-02T21:11:29;1.30;;;1.20;;
21771;SDS011;11047;47.904;8.110;2023-04-02T21:13:56;1.67;;;1.20;;
21771;SDS011;11047;47.904;8.110;2023-04-02T21:16:24;1.50;;;1.40;;
21771;SDS011;11047;47.904;8.110;2023-04-02T21:18:53;2.35;;;2.08;;
21771;SDS011;11047;47.904;8.110;2023-04-02T21:21:23;1.80;;;1.70;;
21771;SDS011;11047;47.904;8.110;2023-04-02T21:23:52;1.83;;;1.73;;
21771;SDS011;11047;47.904;8.110;2023-04-02T21:26:20;2.28;;;2.08;;
21771;SDS011;11047;47.904;8.110;2023-04-02T21:28:47;1.55;;;1.45;;
21771;SDS011;11047;47.904;8.110;2023-04-02T21:31:15;1.60;;;1.50;;
21771;SDS011;11047;47.904;8.110;2023-04-02T21:33:44;1.55;;;1.38;;
21771;SDS011;11047;47.904;8.110;2023-04-02T21:36:13;1.48;;;1.38;;
21771;SDS011;11047;47.904;8.110;2023-04-02T21:38:43;1.67;;;1.27;;
21771;SDS011;11047;47.904;8.110;2023-04-02T21:41:11;1.20;;;1.10;;
21771;SDS011;11047;47.904;8.110;2023-04-02T21:43:39;1.33;;;1.23;;
21771;SDS011;11047;47.904;8.110;2023-04-02T21:46:06;1.40;;;1.30;;
21771;SDS011;11047;47.904;8.110;2023-04-02T21:48:33;1.83;;;1.40;;
21771;SDS011;11047;47.904;8.110;2023-04-02T21:51:07;1.70;;;1.60;;
21771;SDS011;11047;47.904;8.110;2023-04-02T21:53:35;1.63;;;1.52;;
21771;SDS011;11047;47.904;8.110;2023-04-02T21:56:04;4.88;;;2.50;;
21771;SDS011;11047;47.904;8.110;2023-04-02T21:58:33;3.53;;;3.08;;
21771;SDS011;11047;47.904;8.110;2023-04-02T22:01:00;3.90;;;3.28;;
21771;SDS011;11047;47.904;8.110;2023-04-02T22:03:28;3.50;;;3.17;;